createdAt,value
2018-07-28T00:00:59.563Z,46.56
2018-07-28T00:01:59.605Z,46.46
2018-07-28T00:02:59.614Z,46.84
2018-07-28T00:03:59.641Z,46.75
2018-07-28T00:04:59.669Z,46.66
2018-07-28T00:05:59.699Z,46.75
2018-07-28T00:06:59.737Z,46.84
2018-07-28T00:07:59.484Z,46.83
2018-07-28T00:08:59.771Z,46.66
2018-07-28T00:09:59.535Z,46.66
2018-07-28T00:10:59.826Z,46.84
2018-07-28T00:11:59.849Z,46.84
2018-07-28T00:12:59.882Z,46.83
2018-07-28T00:13:59.902Z,46.84
2018-07-28T00:14:59.665Z,46.84
2018-07-28T00:16:00.026Z,46.84
2018-07-28T00:16:59.979Z,47.14
2018-07-28T00:18:00.017Z,46.94
2018-07-28T00:19:00.029Z,47.31
2018-07-28T00:20:00.057Z,46.73
2018-07-28T00:21:00.082Z,46.83
2018-07-28T00:22:00.107Z,47.21
2018-07-28T00:23:00.131Z,47.11
2018-07-28T00:24:00.158Z,47.02
2018-07-28T00:24:59.922Z,46.92
2018-07-28T00:25:59.949Z,47.21
2018-07-28T00:27:00.237Z,47.02
2018-07-28T00:28:00.001Z,47.31
2018-07-28T00:29:00.026Z,47.5
2018-07-28T00:30:00.314Z,47.11
2018-07-28T00:31:00.081Z,47.6
2018-07-28T00:32:00.362Z,47.41
2018-07-28T00:33:00.388Z,47.5
2018-07-28T00:34:00.159Z,47.5
2018-07-28T00:35:00.443Z,47.5
2018-07-28T00:36:00.465Z,47.5
2018-07-28T00:37:00.491Z,47.6
2018-07-28T00:38:00.526Z,47.41
2018-07-28T00:39:00.542Z,47.79
2018-07-28T00:40:00.574Z,47.11
2018-07-28T00:41:00.597Z,47.69
2018-07-28T00:42:00.624Z,47.89
2018-07-28T00:43:00.648Z,47.69
2018-07-28T00:44:00.417Z,47.89
2018-07-28T00:45:00.706Z,47.79
2018-07-28T00:46:00.728Z,47.69
2018-07-28T00:47:00.491Z,47.6
2018-07-28T00:48:00.524Z,47.6
2018-07-28T00:49:00.809Z,48.08
2018-07-28T00:50:00.828Z,48.08
2018-07-28T00:51:00.856Z,47.21
2018-07-28T00:52:00.894Z,47.21
2018-07-28T00:53:00.653Z,47.79
2018-07-28T00:54:00.678Z,47.31
2018-07-28T00:55:00.965Z,47.67
2018-07-28T00:56:00.726Z,47.6
2018-07-28T00:57:01.007Z,47.48
2018-07-28T00:58:01.036Z,48.08
2018-07-28T00:59:01.060Z,47.99
2018-07-28T01:00:01.093Z,48.06
2018-07-28T01:01:01.119Z,48.06
2018-07-28T01:02:01.137Z,47.5
2018-07-28T01:03:01.164Z,47.79
2018-07-28T01:04:00.929Z,47.99
2018-07-28T01:05:01.255Z,47.77
2018-07-28T01:06:01.249Z,48.06
2018-07-28T01:07:01.262Z,47.96
2018-07-28T01:08:01.295Z,48.06
2018-07-28T01:09:01.311Z,48.35
2018-07-28T01:10:01.338Z,48.25
2018-07-28T01:11:01.366Z,48.44
2018-07-28T01:12:01.393Z,48.35
2018-07-28T01:13:01.416Z,48.35
2018-07-28T01:14:01.448Z,48.35
2018-07-28T01:15:01.211Z,48.54
2018-07-28T01:16:01.490Z,48.44
2018-07-28T01:17:01.307Z,48.44
2018-07-28T01:18:01.545Z,48.54
2018-07-28T01:19:01.567Z,48.64
2018-07-28T01:20:01.602Z,48.54
2018-07-28T01:21:01.619Z,48.44
2018-07-28T01:22:01.649Z,48.35
2018-07-28T01:23:01.676Z,48.54
2018-07-28T01:24:01.694Z,48.54
2018-07-28T01:25:01.461Z,48.44
2018-07-28T01:26:01.487Z,48.35
2018-07-28T01:27:01.769Z,48.93
2018-07-28T01:28:01.799Z,48.83
2018-07-28T01:29:01.830Z,48.93
2018-07-28T01:30:01.851Z,48.93
2018-07-28T01:31:01.873Z,48.25
2018-07-28T01:32:01.676Z,48.35
2018-07-28T01:33:01.922Z,48.83
2018-07-28T01:34:01.953Z,48.93
2018-07-28T01:35:02.027Z,48.23
2018-07-28T01:36:02.007Z,48.32
2018-07-28T01:37:02.029Z,48.71
2018-07-28T01:38:02.054Z,48.32
2018-07-28T01:39:02.075Z,48.52
2018-07-28T01:40:01.842Z,48.81
2018-07-28T01:41:02.124Z,48.52
2018-07-28T01:42:02.154Z,48.64
2018-07-28T01:43:02.178Z,48.52
2018-07-28T01:44:02.200Z,48.52
2018-07-28T01:45:02.229Z,48.81
2018-07-28T01:46:02.250Z,49
2018-07-28T01:47:02.276Z,48.61
2018-07-28T01:48:02.306Z,48.81
2018-07-28T01:49:02.330Z,48.9
2018-07-28T01:50:02.096Z,49
2018-07-28T01:51:02.387Z,48.81
2018-07-28T01:52:02.147Z,48.71
2018-07-28T01:53:02.433Z,48.81
2018-07-28T01:54:02.455Z,48.52
2018-07-28T01:55:02.485Z,49
2018-07-28T01:56:02.562Z,49.1
2018-07-28T01:57:02.271Z,48.71
2018-07-28T01:58:02.314Z,49.19
2018-07-28T01:59:02.612Z,48.71
2018-07-28T02:00:02.345Z,49
2018-07-28T02:01:02.634Z,49
2018-07-28T02:02:02.655Z,49.19
2018-07-28T02:03:02.683Z,49
2018-07-28T02:04:02.714Z,49.19
2018-07-28T02:05:02.734Z,49.1
2018-07-28T02:06:02.758Z,48.9
2018-07-28T02:07:02.781Z,49.58
2018-07-28T02:08:02.811Z,49
2018-07-28T02:09:02.576Z,49
2018-07-28T02:10:02.870Z,49.1
2018-07-28T02:11:02.883Z,49.27
2018-07-28T02:12:02.914Z,49.29
2018-07-28T02:13:02.938Z,49.19
2018-07-28T02:14:02.957Z,49.1
2018-07-28T02:15:02.988Z,49.58
2018-07-28T02:16:02.748Z,49
2018-07-28T02:17:03.033Z,49.17
2018-07-28T02:18:02.815Z,49.39
2018-07-28T02:19:03.090Z,49.1
2018-07-28T02:20:03.120Z,49.27
2018-07-28T02:21:02.873Z,49.39
2018-07-28T02:22:03.162Z,49.68
2018-07-28T02:23:03.181Z,49.77
2018-07-28T02:24:03.220Z,49.77
2018-07-28T02:25:03.232Z,49.55
2018-07-28T02:26:03.017Z,49.75
2018-07-28T02:27:03.285Z,49.87
2018-07-28T02:28:03.055Z,49.85
2018-07-28T02:29:03.074Z,49.46
2018-07-28T02:30:03.366Z,49.46
2018-07-28T02:31:03.385Z,49.68
2018-07-28T02:32:03.643Z,49.55
2018-07-28T02:33:03.434Z,49.75
2018-07-28T02:34:03.225Z,49.65
2018-07-28T02:35:03.519Z,49.75
2018-07-28T02:36:03.511Z,49.55
2018-07-28T02:37:03.280Z,49.65
2018-07-28T02:38:03.585Z,49.55
2018-07-28T02:39:03.587Z,49.46
2018-07-28T02:40:03.616Z,49.65
2018-07-28T02:41:03.374Z,49.65
2018-07-28T02:42:03.406Z,49.46
2018-07-28T02:43:03.690Z,49.75
2018-07-28T02:44:03.721Z,49.65
2018-07-28T02:45:03.485Z,49.75
2018-07-28T02:46:03.782Z,49.85
2018-07-28T02:47:03.527Z,50.04
2018-07-28T02:48:03.880Z,50.23
2018-07-28T02:49:03.848Z,50.04
2018-07-28T02:50:03.600Z,50.23
2018-07-28T02:51:03.623Z,50.13
2018-07-28T02:52:03.651Z,50.33
2018-07-28T02:53:03.937Z,50.43
2018-07-28T02:54:03.961Z,50.33
2018-07-28T02:55:03.989Z,50.43
2018-07-28T02:56:03.760Z,50.23
2018-07-28T02:57:04.248Z,50.33
2018-07-28T02:58:04.116Z,50.62
2018-07-28T02:59:04.080Z,50.52
2018-07-28T03:00:04.108Z,50.43
2018-07-28T03:01:04.199Z,50.33
2018-07-28T03:02:03.898Z,50.43
2018-07-28T03:03:04.198Z,50.33
2018-07-28T03:04:03.951Z,50.52
2018-07-28T03:05:04.232Z,51.1
2018-07-28T03:06:04.288Z,50.71
2018-07-28T03:07:04.132Z,50.81
2018-07-28T03:08:04.306Z,50.81
2018-07-28T03:09:04.335Z,50.91
2018-07-28T03:10:04.362Z,50.81
2018-07-28T03:11:04.380Z,50.91
2018-07-28T03:12:04.416Z,51.2
2018-07-28T03:13:04.433Z,50.81
2018-07-28T03:14:04.462Z,50.62
2018-07-28T03:15:04.487Z,50.89
2018-07-28T03:16:04.516Z,50.89
2018-07-28T03:17:04.267Z,50.81
2018-07-28T03:18:04.297Z,50.89
2018-07-28T03:19:04.317Z,50.81
2018-07-28T03:20:04.607Z,50.91
2018-07-28T03:21:04.365Z,50.98
2018-07-28T03:22:04.389Z,50.91
2018-07-28T03:23:04.677Z,50.69
2018-07-28T03:24:04.701Z,51.07
2018-07-28T03:25:04.471Z,50.71
2018-07-28T03:26:04.758Z,51.17
2018-07-28T03:27:04.514Z,50.89
2018-07-28T03:28:04.805Z,51.17
2018-07-28T03:29:04.584Z,50.98
2018-07-28T03:30:04.588Z,50.98
2018-07-28T03:31:04.871Z,50.98
2018-07-28T03:32:04.899Z,51.17
2018-07-28T03:33:04.661Z,51.37
2018-07-28T03:34:04.702Z,51.27
2018-07-28T03:35:04.972Z,51.27
2018-07-28T03:36:04.734Z,51.75
2018-07-28T03:37:05.022Z,51.65
2018-07-28T03:38:04.783Z,51.27
2018-07-28T03:39:04.811Z,51.65
2018-07-28T03:40:04.835Z,51.46
2018-07-28T03:41:05.123Z,52.14
2018-07-28T03:42:05.141Z,51.95
2018-07-28T03:43:05.169Z,51.95
2018-07-28T03:44:04.930Z,52.14
2018-07-28T03:45:05.218Z,52.23
2018-07-28T03:46:04.981Z,52.23
2018-07-28T03:47:05.262Z,52.23
2018-07-28T03:48:05.293Z,51.75
2018-07-28T03:49:05.314Z,51.56
2018-07-28T03:50:05.080Z,52.04
2018-07-28T03:51:05.104Z,52.33
2018-07-28T03:52:05.136Z,52.23
2018-07-28T03:53:05.411Z,51.75
2018-07-28T03:54:05.442Z,52.14
2018-07-28T03:55:05.467Z,52.14
2018-07-28T03:56:05.488Z,52.33
2018-07-28T03:57:05.516Z,52.23
2018-07-28T03:58:05.537Z,52.43
2018-07-28T03:59:05.556Z,52.23
2018-07-28T04:00:05.323Z,52.23
2018-07-28T04:01:05.614Z,52.43
2018-07-28T04:02:05.387Z,52.43
2018-07-28T04:03:05.404Z,52.43
2018-07-28T04:04:05.445Z,52.33
2018-07-28T04:05:05.708Z,52.43
2018-07-28T04:06:05.473Z,52.43
2018-07-28T04:07:05.754Z,52.43
2018-07-28T04:08:05.520Z,52.53
2018-07-28T04:09:05.807Z,52.72
2018-07-28T04:10:05.587Z,52.72
2018-07-28T04:11:05.853Z,52.33
2018-07-28T04:12:05.875Z,52.62
2018-07-28T04:13:05.648Z,52.81
2018-07-28T04:14:05.926Z,52.62
2018-07-28T04:15:05.696Z,52.43
2018-07-28T04:16:05.978Z,52.33
2018-07-28T04:17:06.001Z,52.62
2018-07-28T04:18:06.023Z,52.33
2018-07-28T04:19:06.053Z,52.72
2018-07-28T04:20:05.813Z,52.72
2018-07-28T04:21:06.097Z,52.53
2018-07-28T04:22:06.123Z,52.43
2018-07-28T04:23:05.887Z,52.62
2018-07-28T04:24:06.172Z,52.72
2018-07-28T04:25:06.203Z,52.62
2018-07-28T04:26:06.219Z,52.72
2018-07-28T04:27:06.243Z,52.62
2018-07-28T04:28:06.269Z,52.91
2018-07-28T04:29:06.291Z,52.62
2018-07-28T04:30:06.061Z,52.81
2018-07-28T04:31:06.340Z,53.01
2018-07-28T04:32:06.370Z,53.01
2018-07-28T04:33:06.389Z,52.81
2018-07-28T04:34:06.413Z,52.72
2018-07-28T04:35:06.442Z,53.11
2018-07-28T04:36:06.210Z,53.01
2018-07-28T04:37:06.555Z,53.01
2018-07-28T04:38:06.514Z,52.72
2018-07-28T04:39:06.535Z,52.72
2018-07-28T04:40:06.564Z,52.81
2018-07-28T04:41:06.591Z,53.11
2018-07-28T04:42:06.357Z,53.01
2018-07-28T04:43:06.379Z,53.11
2018-07-28T04:44:06.919Z,53.01
2018-07-28T04:45:06.681Z,53.2
2018-07-28T04:46:06.449Z,53.11
2018-07-28T04:47:06.732Z,53.01
2018-07-28T04:48:06.498Z,53.39
2018-07-28T04:49:06.519Z,53.3
2018-07-28T04:50:06.551Z,53.2
2018-07-28T04:51:06.826Z,53.39
2018-07-28T04:52:06.850Z,53.11
2018-07-28T04:53:06.878Z,53.11
2018-07-28T04:54:06.912Z,53.01
2018-07-28T04:55:06.924Z,52.91
2018-07-28T04:56:06.691Z,53.2
2018-07-28T04:57:06.975Z,53.01
2018-07-28T04:58:07.004Z,52.91
2018-07-28T04:59:07.022Z,53.11
2018-07-28T05:00:06.789Z,53.11
2018-07-28T05:01:07.069Z,53.11
2018-07-28T05:02:06.837Z,52.91
2018-07-28T05:03:07.122Z,53.3
2018-07-28T05:04:07.144Z,53.11
2018-07-28T05:05:07.167Z,53.39
2018-07-28T05:06:06.933Z,53.59
2018-07-28T05:07:07.240Z,53.69
2018-07-28T05:08:07.247Z,53.2
2018-07-28T05:09:07.273Z,53.01
2018-07-28T05:10:07.289Z,53.59
2018-07-28T05:11:07.317Z,53.3
2018-07-28T05:12:07.080Z,54.17
2018-07-28T05:13:07.365Z,54.07
2018-07-28T05:14:07.393Z,53.97
2018-07-28T05:15:07.414Z,53.78
2018-07-28T05:16:07.606Z,53.78
2018-07-28T05:17:07.203Z,54.17
2018-07-28T05:18:07.488Z,54.17
2018-07-28T05:19:07.251Z,53.97
2018-07-28T05:20:07.276Z,54.65
2018-07-28T05:21:07.559Z,54.36
2018-07-28T05:22:07.585Z,54.17
2018-07-28T05:23:07.345Z,54.65
2018-07-28T05:24:07.633Z,54.84
2018-07-28T05:25:07.400Z,54.75
2018-07-28T05:26:07.423Z,54.65
2018-07-28T05:27:07.707Z,54.84
2018-07-28T05:28:07.729Z,55.33
2018-07-28T05:29:07.756Z,54.84
2018-07-28T05:30:07.820Z,55.62
2018-07-28T05:31:07.808Z,55.71
2018-07-28T05:32:07.634Z,55.71
2018-07-28T05:33:07.851Z,55.52
2018-07-28T05:34:07.874Z,55.81
2018-07-28T05:35:07.904Z,55.42
2018-07-28T05:36:07.924Z,56.1
2018-07-28T05:37:07.723Z,55.52
2018-07-28T05:38:07.715Z,56.1
2018-07-28T05:39:08.111Z,55.81
2018-07-28T05:40:08.022Z,56.1
2018-07-28T05:41:07.835Z,56.1
2018-07-28T05:42:08.070Z,55.9
2018-07-28T05:43:08.094Z,56
2018-07-28T05:44:08.119Z,56.51
2018-07-28T05:45:08.149Z,56.51
2018-07-28T05:46:08.165Z,55.9
2018-07-28T05:47:08.193Z,56.39
2018-07-28T05:48:08.221Z,56.13
2018-07-28T05:49:08.246Z,56
2018-07-28T05:50:08.092Z,56.13
2018-07-28T05:51:08.289Z,56.51
2018-07-28T05:52:08.316Z,55.9
2018-07-28T05:53:08.342Z,56.22
2018-07-28T05:54:08.361Z,56.2
2018-07-28T05:55:08.130Z,55.45
2018-07-28T05:56:08.410Z,55.74
2018-07-28T05:57:08.432Z,55.74
2018-07-28T05:58:08.207Z,55.55
2018-07-28T05:59:08.487Z,55.65
2018-07-28T06:00:08.509Z,56.03
2018-07-28T06:01:08.536Z,55.83
2018-07-28T06:02:08.372Z,56.22
2018-07-28T06:03:08.588Z,56.41
2018-07-28T06:04:08.350Z,56.03
2018-07-28T06:05:08.376Z,55.83
2018-07-28T06:06:08.397Z,55.55
2018-07-28T06:07:08.689Z,55.83
2018-07-28T06:08:08.445Z,55.83
2018-07-28T06:09:08.469Z,56.51
2018-07-28T06:10:08.498Z,55.55
2018-07-28T06:11:08.787Z,56.03
2018-07-28T06:12:08.803Z,55.55
2018-07-28T06:13:08.831Z,56.13
2018-07-28T06:14:08.651Z,56.32
2018-07-28T06:15:08.879Z,55.65
2018-07-28T06:16:08.904Z,56.32
2018-07-28T06:17:08.926Z,55.93
2018-07-28T06:18:08.952Z,55.55
2018-07-28T06:19:08.718Z,56.15
2018-07-28T06:20:08.751Z,56.32
2018-07-28T06:21:09.032Z,55.83
2018-07-28T06:22:09.232Z,55.96
2018-07-28T06:23:09.072Z,55.87
2018-07-28T06:24:09.097Z,55.35
2018-07-28T06:25:09.122Z,55.38
2018-07-28T06:26:09.149Z,54.71
2018-07-28T06:27:09.171Z,54.97
2018-07-28T06:28:08.936Z,54.87
2018-07-28T06:29:09.219Z,54.71
2018-07-28T06:30:08.985Z,55.38
2018-07-28T06:31:09.009Z,55.29
2018-07-28T06:32:09.303Z,55.47
2018-07-28T06:33:09.320Z,55.38
2018-07-28T06:34:09.092Z,55.29
2018-07-28T06:35:09.366Z,55.47
2018-07-28T06:36:09.391Z,55.19
2018-07-28T06:37:09.420Z,55.09
2018-07-28T06:38:09.444Z,55.38
2018-07-28T06:39:09.464Z,55.67
2018-07-28T06:40:09.492Z,55.47
2018-07-28T06:41:09.516Z,56.15
2018-07-28T06:42:09.661Z,55.57
2018-07-28T06:43:09.564Z,56.15
2018-07-28T06:44:09.593Z,55.99
2018-07-28T06:45:09.617Z,55.99
2018-07-28T06:46:09.640Z,56.09
2018-07-28T06:47:09.674Z,55.89
2018-07-28T06:48:09.435Z,55.89
2018-07-28T06:49:09.717Z,55.41
2018-07-28T06:50:09.737Z,55.89
2018-07-28T06:51:09.768Z,55.6
2018-07-28T06:52:09.525Z,56.09
2018-07-28T06:53:09.808Z,55.99
2018-07-28T06:54:09.841Z,55.7
2018-07-28T06:55:09.864Z,56.11
2018-07-28T06:56:09.882Z,55.89
2018-07-28T06:57:09.908Z,55.82
2018-07-28T06:58:09.676Z,55.63
2018-07-28T06:59:09.709Z,55.6
2018-07-28T07:00:09.779Z,55.63
2018-07-28T07:01:10.009Z,56.21
2018-07-28T07:02:10.040Z,56.11
2018-07-28T07:03:10.061Z,56.21
2018-07-28T07:04:10.087Z,55.92
2018-07-28T07:05:10.111Z,55.82
2018-07-28T07:06:10.137Z,56.4
2018-07-28T07:07:10.160Z,55.82
2018-07-28T07:08:10.186Z,56.6
2018-07-28T07:09:10.225Z,56.3
2018-07-28T07:10:10.237Z,56.7
2018-07-28T07:11:10.262Z,56.4
2018-07-28T07:12:10.283Z,56.52
2018-07-28T07:13:10.314Z,56.52
2018-07-28T07:14:10.334Z,56.62
2018-07-28T07:15:10.363Z,56.24
2018-07-28T07:16:10.383Z,56.43
2018-07-28T07:17:10.410Z,56.62
2018-07-28T07:18:10.435Z,56.34
2018-07-28T07:19:10.461Z,56.24
2018-07-28T07:20:10.224Z,56.52
2018-07-28T07:21:10.508Z,56.62
2018-07-28T07:22:10.273Z,56.62
2018-07-28T07:23:10.562Z,56.16
2018-07-28T07:24:10.585Z,56.16
2018-07-28T07:25:10.617Z,56.16
2018-07-28T07:26:10.634Z,56.56
2018-07-28T07:27:10.661Z,56.26
2018-07-28T07:28:10.426Z,56.46
2018-07-28T07:29:10.708Z,56.68
2018-07-28T07:30:10.734Z,56.46
2018-07-28T07:31:10.760Z,56
2018-07-28T07:32:10.791Z,56.29
2018-07-28T07:33:10.812Z,56.29
2018-07-28T07:34:10.837Z,56.2
2018-07-28T07:35:10.861Z,55.64
2018-07-28T07:36:10.631Z,55.64
2018-07-28T07:37:10.912Z,55.83
2018-07-28T07:38:10.942Z,55.83
2018-07-28T07:39:10.969Z,55.16
2018-07-28T07:40:10.998Z,55.06
2018-07-28T07:41:11.015Z,55.06
2018-07-28T07:42:11.048Z,55.57
2018-07-28T07:43:10.806Z,54.9
2018-07-28T07:44:11.094Z,54.99
2018-07-28T07:45:10.858Z,55.47
2018-07-28T07:46:11.146Z,55.08
2018-07-28T07:47:11.272Z,55.08
2018-07-28T07:48:11.197Z,54.34
2018-07-28T07:49:11.226Z,55.41
2018-07-28T07:50:11.261Z,54.05
2018-07-28T07:51:11.279Z,53.75
2018-07-28T07:52:11.295Z,54.36
2018-07-28T07:53:11.320Z,54.17
2018-07-28T07:54:11.355Z,53.88
2018-07-28T07:55:11.371Z,53.3
2018-07-28T07:56:11.400Z,53.3
2018-07-28T07:57:11.427Z,53.2
2018-07-28T07:58:11.501Z,52.94
2018-07-28T07:59:11.477Z,53.03
2018-07-28T08:00:11.241Z,52.84
2018-07-28T08:01:11.271Z,52.74
2018-07-28T08:02:11.295Z,52.74
2018-07-28T08:03:11.583Z,52.74
2018-07-28T08:04:11.614Z,52.09
2018-07-28T08:05:11.634Z,52.47
2018-07-28T08:06:11.658Z,52.19
2018-07-28T08:07:11.683Z,52.09
2018-07-28T08:08:11.713Z,51.89
2018-07-28T08:09:11.744Z,51.72
2018-07-28T08:10:11.765Z,51.62
2018-07-28T08:11:11.792Z,51.43
2018-07-28T08:12:11.819Z,51.53
2018-07-28T08:13:11.841Z,51.23
2018-07-28T08:14:11.865Z,51.23
2018-07-28T08:15:11.898Z,51.07
2018-07-28T08:16:11.918Z,51.26
2018-07-28T08:17:11.944Z,51.36
2018-07-28T08:18:11.970Z,51.17
2018-07-28T08:19:11.739Z,51.26
2018-07-28T08:20:12.026Z,50.87
2018-07-28T08:21:12.056Z,50.7
2018-07-28T08:22:12.081Z,50.9
2018-07-28T08:23:12.104Z,50.6
2018-07-28T08:24:12.132Z,50.02
2018-07-28T08:25:12.167Z,50.02
2018-07-28T08:26:12.188Z,50.02
2018-07-28T08:27:12.215Z,49.95
2018-07-28T08:28:11.980Z,50.14
2018-07-28T08:29:12.263Z,50.34
2018-07-28T08:30:12.296Z,49.27
2018-07-28T08:31:12.321Z,49.19
2018-07-28T08:32:12.083Z,48.9
2018-07-28T08:33:12.381Z,49
2018-07-28T08:34:12.403Z,49.29
2018-07-28T08:35:12.428Z,49.29
2018-07-28T08:36:12.455Z,48.8
2018-07-28T08:37:12.481Z,48.93
2018-07-28T08:38:12.510Z,48.44
2018-07-28T08:39:12.534Z,48.24
2018-07-28T08:40:12.308Z,47.66
2018-07-28T08:41:12.593Z,47.88
2018-07-28T08:42:12.355Z,47.58
2018-07-28T08:43:12.652Z,47.09
2018-07-28T08:44:12.671Z,47.29
2018-07-28T08:45:12.699Z,46.92
2018-07-28T08:46:12.465Z,46.73
2018-07-28T08:47:12.752Z,46.53
2018-07-28T08:48:12.525Z,46.44
2018-07-28T08:49:13.012Z,46.36
2018-07-28T08:50:12.840Z,46.17
2018-07-28T08:51:12.609Z,45.97
2018-07-28T08:52:12.631Z,45.68
2018-07-28T08:53:12.916Z,45.78
2018-07-28T08:54:12.950Z,45.48
2018-07-28T08:55:12.974Z,45.51
2018-07-28T08:56:13.001Z,45.31
2018-07-28T08:57:12.769Z,44.92
2018-07-28T08:58:13.058Z,44.82
2018-07-28T08:59:13.085Z,44.65
2018-07-28T09:00:13.112Z,44.34
2018-07-28T09:01:13.140Z,44.45
2018-07-28T09:02:13.172Z,44.53
2018-07-28T09:03:13.216Z,44.26
2018-07-28T09:04:13.222Z,44.55
2018-07-28T09:05:12.993Z,44.55
2018-07-28T09:06:13.026Z,43.99
2018-07-28T09:07:13.308Z,44.09
2018-07-28T09:08:13.343Z,43.69
2018-07-28T09:09:13.366Z,43.32
2018-07-28T09:10:13.396Z,43.03
2018-07-28T09:11:13.439Z,43.05
2018-07-28T09:12:13.463Z,42.85
2018-07-28T09:13:13.477Z,42.66
2018-07-28T09:14:13.247Z,42.56
2018-07-28T09:15:13.544Z,41.88
2018-07-28T09:16:13.562Z,41.7
2018-07-28T09:17:13.336Z,41.21
2018-07-28T09:18:13.624Z,40.92
2018-07-28T09:19:13.389Z,40.94
2018-07-28T09:20:13.679Z,40.74
2018-07-28T09:21:13.708Z,40.84
2018-07-28T09:22:13.474Z,40.55
2018-07-28T09:23:13.886Z,40.25
2018-07-28T09:24:13.533Z,40.08
2018-07-28T09:25:13.821Z,40.17
2018-07-28T09:26:13.592Z,40.08
2018-07-28T09:27:13.878Z,39.9
2018-07-28T09:28:13.909Z,39.31
2018-07-28T09:29:13.936Z,39.11
2018-07-28T09:30:13.966Z,39.01
2018-07-28T09:31:13.735Z,38.15
2018-07-28T09:32:13.775Z,38.45
2018-07-28T09:33:14.055Z,38.17
2018-07-28T09:34:14.196Z,37.96
2018-07-28T09:35:14.196Z,37.78
2018-07-28T09:36:14.236Z,37.48
2018-07-28T09:37:14.183Z,37.48
2018-07-28T09:38:14.201Z,37.29
2018-07-28T09:39:13.971Z,37.29
2018-07-28T09:40:14.259Z,37.11
2018-07-28T09:41:14.043Z,37.01
2018-07-28T09:42:14.322Z,36.22
2018-07-28T09:43:14.091Z,35.83
2018-07-28T09:44:14.381Z,36.13
2018-07-28T09:45:14.182Z,35.95
2018-07-28T09:46:14.461Z,36.15
2018-07-28T09:47:14.471Z,35.95
2018-07-28T09:48:14.507Z,35.55
2018-07-28T09:49:14.269Z,35.46
2018-07-28T09:50:14.559Z,35.97
2018-07-28T09:51:14.593Z,35.57
2018-07-28T09:52:14.619Z,35.77
2018-07-28T09:53:14.649Z,34.9
2018-07-28T09:54:14.680Z,35
2018-07-28T09:55:14.453Z,34.7
2018-07-28T09:56:14.805Z,34.8
2018-07-28T09:57:14.511Z,34.31
2018-07-28T09:58:14.802Z,34.43
2018-07-28T09:59:14.576Z,34.03
2018-07-28T10:00:14.863Z,34.03
2018-07-28T10:01:14.894Z,34.05
2018-07-28T10:02:14.923Z,33.17
2018-07-28T10:03:14.950Z,32.97
2018-07-28T10:04:14.983Z,32.97
2018-07-28T10:05:15.014Z,33.26
2018-07-28T10:06:15.044Z,32.87
2018-07-28T10:07:15.074Z,32.77
2018-07-28T10:08:15.107Z,32.67
2018-07-28T10:09:14.882Z,32.49
2018-07-28T10:10:15.168Z,32.69
2018-07-28T10:11:15.199Z,32.59
2018-07-28T10:12:14.971Z,32.89
2018-07-28T10:13:15.264Z,33
2018-07-28T10:14:15.292Z,32.8
2018-07-28T10:15:15.324Z,32.7
2018-07-28T10:16:15.509Z,32.51
2018-07-28T10:17:15.386Z,32.42
2018-07-28T10:18:15.424Z,31.93
2018-07-28T10:19:15.450Z,31.44
2018-07-28T10:20:15.536Z,30.96
2018-07-28T10:21:15.257Z,31.16
2018-07-28T10:22:15.554Z,30.96
2018-07-28T10:23:15.575Z,31.06
2018-07-28T10:24:15.350Z,31.07
2018-07-28T10:25:15.644Z,30.98
2018-07-28T10:26:15.670Z,30.88
2018-07-28T10:27:15.704Z,30.78
2018-07-28T10:28:15.741Z,30.38
2018-07-28T10:29:15.769Z,30.5
2018-07-28T10:30:16.028Z,30.3
2018-07-28T10:31:15.571Z,30.3
2018-07-28T10:32:15.865Z,30.3
2018-07-28T10:33:15.895Z,30.02
2018-07-28T10:34:15.932Z,29.72
2018-07-28T10:35:16.024Z,29.92
2018-07-28T10:36:16.089Z,29.33
2018-07-28T10:37:16.023Z,28.75
2018-07-28T10:38:15.794Z,29.14
2018-07-28T10:39:16.091Z,28.85
2018-07-28T10:40:15.859Z,28.94
2018-07-28T10:41:16.161Z,28.96
2018-07-28T10:42:16.183Z,28.45
2018-07-28T10:43:16.217Z,29.06
2018-07-28T10:44:15.995Z,28.47
2018-07-28T10:45:16.025Z,28.27
2018-07-28T10:46:16.318Z,28.07
2018-07-28T10:47:16.347Z,27.69
2018-07-28T10:48:16.379Z,27.59
2018-07-28T10:49:16.412Z,27.69
2018-07-28T10:50:16.446Z,27.79
2018-07-28T10:51:16.480Z,27.49
2018-07-28T10:52:16.517Z,27.6
2018-07-28T10:53:16.545Z,27.31
2018-07-28T10:54:16.574Z,27.31
2018-07-28T10:55:16.613Z,26.71
2018-07-28T10:56:16.644Z,27.11
2018-07-28T10:57:16.671Z,27.22
2018-07-28T10:58:16.737Z,26.92
2018-07-28T10:59:16.740Z,27.02
2018-07-28T11:00:17.051Z,27.02
2018-07-28T11:01:16.807Z,27.02
2018-07-28T11:02:16.587Z,27.14
2018-07-28T11:03:16.660Z,26.74
2018-07-28T11:04:16.907Z,26.34
2018-07-28T11:05:16.941Z,26.34
2018-07-28T11:06:16.975Z,26.74
2018-07-28T11:07:16.746Z,27.04
2018-07-28T11:08:16.780Z,27.15
2018-07-28T11:09:17.272Z,26.85
2018-07-28T11:10:17.112Z,26.35
2018-07-28T11:11:17.145Z,26.27
2018-07-28T11:12:16.913Z,25.66
2018-07-28T11:13:17.213Z,25.56
2018-07-28T11:14:16.984Z,25.48
2018-07-28T11:15:17.277Z,25.48
2018-07-28T11:16:17.071Z,24.58
2018-07-28T11:17:17.347Z,24.49
2018-07-28T11:18:17.117Z,24.79
2018-07-28T11:19:17.151Z,24.6
2018-07-28T11:20:17.443Z,24.4
2018-07-28T11:21:17.495Z,24.99
2018-07-28T11:22:17.257Z,24.69
2018-07-28T11:23:17.549Z,24.9
2018-07-28T11:24:17.583Z,24.51
2018-07-28T11:25:17.617Z,24.11
2018-07-28T11:26:17.861Z,23.61
2018-07-28T11:27:17.688Z,23.61
2018-07-28T11:28:17.716Z,24.22
2018-07-28T11:29:17.758Z,24.21
2018-07-28T11:30:17.784Z,23.93
2018-07-28T11:31:17.564Z,24.12
2018-07-28T11:32:17.856Z,24.32
2018-07-28T11:33:18.038Z,24.32
2018-07-28T11:34:18.058Z,23.43
2018-07-28T11:35:17.959Z,23.34
2018-07-28T11:36:17.733Z,23.44
2018-07-28T11:37:18.028Z,23.83
2018-07-28T11:38:17.804Z,23.74
2018-07-28T11:39:17.838Z,24.24
2018-07-28T11:40:18.129Z,24.05
2018-07-28T11:41:17.931Z,23.75
2018-07-28T11:42:18.205Z,23.25
2018-07-28T11:43:18.242Z,23.55
2018-07-28T11:44:18.272Z,23.75
2018-07-28T11:45:18.311Z,23.35
2018-07-28T11:46:18.344Z,23.15
2018-07-28T11:47:18.379Z,23.26
2018-07-28T11:48:18.414Z,23.36
2018-07-28T11:49:18.187Z,23.07
2018-07-28T11:50:18.499Z,21.77
2018-07-28T11:51:18.571Z,21.98
2018-07-28T11:52:18.572Z,22.77
2018-07-28T11:53:18.596Z,22.97
2018-07-28T11:54:18.627Z,23.37
2018-07-28T11:55:18.657Z,22.97
2018-07-28T11:56:18.693Z,22.77
2018-07-28T11:57:18.727Z,22.77
2018-07-28T11:58:18.988Z,22.28
2018-07-28T11:59:18.538Z,22.28
2018-07-28T12:00:18.574Z,21.69
2018-07-28T12:01:18.875Z,21.79
2018-07-28T12:02:18.989Z,20.89
2018-07-28T12:03:18.940Z,21.49
2018-07-28T12:04:18.976Z,21.89
2018-07-28T12:05:19.017Z,21.59
2018-07-28T12:06:19.045Z,21.2
2018-07-28T12:07:19.082Z,20.41
2018-07-28T12:08:19.125Z,20.31
2018-07-28T12:09:19.153Z,20.11
2018-07-28T12:10:19.188Z,20.81
2018-07-28T12:11:19.255Z,20.61
2018-07-28T12:12:19.259Z,20.81
2018-07-28T12:13:19.303Z,20.92
2018-07-28T12:14:19.332Z,21.01
2018-07-28T12:15:19.370Z,21.12
2018-07-28T12:16:19.402Z,20.73
2018-07-28T12:17:19.439Z,20.53
2018-07-28T12:18:19.726Z,20.23
2018-07-28T12:19:19.251Z,20.32
2018-07-28T12:20:19.546Z,19.84
2018-07-28T12:21:19.579Z,20.04
2018-07-28T12:22:19.618Z,20.24
2018-07-28T12:23:19.654Z,19.55
2018-07-28T12:24:19.689Z,18.84
2018-07-28T12:25:19.732Z,17.65
2018-07-28T12:26:19.762Z,17.76
2018-07-28T12:27:19.538Z,17.95
2018-07-28T12:28:19.832Z,17.16
2018-07-28T12:29:19.871Z,16.96
2018-07-28T12:30:19.649Z,16.96
2018-07-28T12:31:19.944Z,17.46
2018-07-28T12:32:19.980Z,16.75
2018-07-28T12:33:20.016Z,16.96
2018-07-28T12:34:20.054Z,17.26
2018-07-28T12:35:20.089Z,17.96
2018-07-28T12:36:20.127Z,17.86
2018-07-28T12:37:19.901Z,18.06
2018-07-28T12:38:20.201Z,17.96
2018-07-28T12:39:19.974Z,17.76
2018-07-28T12:40:20.272Z,18.07
2018-07-28T12:41:20.311Z,17.87
2018-07-28T12:42:20.359Z,17.97
2018-07-28T12:43:20.379Z,17.77
2018-07-28T12:44:20.417Z,17.67
2018-07-28T12:45:20.455Z,17.17
2018-07-28T12:46:20.492Z,17.07
2018-07-28T12:47:20.267Z,17.07
2018-07-28T12:48:20.563Z,17.17
2018-07-28T12:49:20.624Z,17.58
2018-07-28T12:50:20.638Z,17.78
2018-07-28T12:51:20.674Z,17.78
2018-07-28T12:52:20.716Z,17.48
2018-07-28T12:53:20.747Z,17.78
2018-07-28T12:54:20.824Z,17.58
2018-07-28T12:55:21.023Z,17.78
2018-07-28T12:56:20.924Z,17.79
2018-07-28T12:57:20.638Z,17.89